Taiou Maru — JD3273 — position and weather

sailwx.info

Track history (hours):
 
Tides and Currents Weather Stations Pressure Air Temp Water Temp Dewpoint Dewpoint Depression Visibility Wind Speed Wind Dir Waves Ship Positions

Taiou Maru

Last reported at 2018-Feb-21 09:00 UTC. Time now 2018-Feb-21 09:17 UTC.
Position N 33°50' E 135°03'.

Length 72 m; draft 4.2 m.

Type: Ship. MMSI: 431003171.

Date/timePositionNaut miles runAvg speedWind from/ knotsBaromVisibWave heightAir tempDewpointWater temp
2018-Feb-21 09:00N 33°50' E 135°03'713.5
2018-Feb-21 08:30N 33°55' E 134°57'713.2
2018-Feb-21 08:00N 34°00' E 134°52'713.7
2018-Feb-21 07:30N 34°06' E 134°47'714.2
2018-Feb-21 07:00N 34°11' E 134°42'714.4
2018-Feb-21 06:30N 34°18' E 134°38'713.5
2018-Feb-21 06:00N 34°24' E 134°39'713.2
2018-Feb-21 05:30N 34°31' E 134°40'613.0
2018-Feb-21 05:00N 34°37' E 134°40'612.4
2018-Feb-21 04:30N 34°43' E 134°38'2 0.7
2018-Feb-21 01:04N 34°45' E 134°37'2 3.7
2018-Feb-21 00:39N 34°44' E 134°37'1 1.2
2018-Feb-21 00:09N 34°43' E 134°36'0 0.1
2018-Feb-20 23:57N 34°43' E 134°36'0 0.1
2018-Feb-20 23:27N 34°43' E 134°36'0 0.0
2018-Feb-20 23:00N 34°43' E 134°36'0 0.0
2018-Feb-20 22:27N 34°43' E 134°36'0 0.0
2018-Feb-20 21:54N 34°43' E 134°36'0 0.0
2018-Feb-20 21:27N 34°43' E 134°36'0 0.0
2018-Feb-20 20:51N 34°43' E 134°36'0 0.0
2018-Feb-20 20:27N 34°43' E 134°36'0 0.0
2018-Feb-20 19:57N 34°43' E 134°36'0 0.0
2018-Feb-20 19:27N 34°43' E 134°36'0 0.0
2018-Feb-20 18:57N 34°43' E 134°36'0 0.1
2018-Feb-20 18:27N 34°43' E 134°36'0 0.3
2018-Feb-20 18:00N 34°43' E 134°36'611.9
2018-Feb-20 17:29N 34°42' E 134°29'9511.0
2018-Feb-20 08:47N 33°60' E 132°45'311.1
2018-Feb-20 08:29N 33°57' E 132°43'4611.6
2018-Feb-20 04:31N 33°28' E 131°59'011.7
2018-Feb-20 04:30N 33°28' E 131°59'612.3
2018-Feb-20 04:00N 33°25' E 131°53'612.8
2018-Feb-20 03:31N 33°21' E 131°47'612.5
2018-Feb-20 03:00N 33°17' E 131°41'1 0.4
2018-Feb-19 23:38N 33°16' E 131°41'0 1.6
2018-Feb-19 23:25N 33°16' E 131°41'5 9.5
2018-Feb-19 22:52N 33°21' E 131°42'0 0.0
2018-Feb-19 22:22N 33°21' E 131°42'0 0.0
2018-Feb-19 21:22N 33°21' E 131°42'0 0.0
2018-Feb-19 20:55N 33°21' E 131°42'0 0.0
2018-Feb-19 20:28N 33°21' E 131°42'0 0.0
2018-Feb-19 19:58N 33°21' E 131°42'0 0.0
2018-Feb-19 19:28N 33°21' E 131°42'0 0.0
2018-Feb-19 18:58N 33°21' E 131°42'0 0.0
2018-Feb-19 18:25N 33°21' E 131°42'0 0.0
2018-Feb-19 17:58N 33°21' E 131°42'0 0.0
2018-Feb-19 17:28N 33°21' E 131°42'0 0.0
2018-Feb-19 16:58N 33°21' E 131°42'0 0.0
2018-Feb-19 16:28N 33°21' E 131°42'0 0.0
2018-Feb-19 15:58N 33°21' E 131°42'1 3.2
2018-Feb-19 15:30N 33°23' E 131°43'713.3
2018-Feb-19 15:00N 33°26' E 131°50'713.0
2018-Feb-19 14:28N 33°30' E 131°57'1512.7
2018-Feb-19 13:16N 33°38' E 132°12'512.6
2018-Feb-19 12:53N 33°41' E 132°17'612.7
2018-Feb-19 12:24N 33°45' E 132°23'612.5
2018-Feb-19 11:54N 33°48' E 132°29'512.6
2018-Feb-19 11:29N 33°51' E 132°34'713.0
2018-Feb-19 10:59N 33°56' E 132°40'90 1.8
2018-Feb-17 07:47N 34°21' E 134°24'611.3
2018-Feb-17 07:15N 34°18' E 134°31'311.3
2018-Feb-17 06:57N 34°17' E 134°34'11 9.8
2018-Feb-17 05:47N 34°09' E 134°44'2 6.8
2018-Feb-17 05:29N 34°07' E 134°46'3 6.5
2018-Feb-17 05:00N 34°05' E 134°48'3 6.5
2018-Feb-17 04:30N 34°02' E 134°50'4 6.5
2018-Feb-17 03:57N 33°60' E 134°53'3 6.3
2018-Feb-17 03:29N 33°57' E 134°55'3 6.1
2018-Feb-17 02:55N 33°55' E 134°58'3 7.8
2018-Feb-17 02:31N 33°53' E 135°01'19410.0
2018-Feb-16 07:08N 34°33' E 138°50'212.3
2018-Feb-16 07:00N 34°33' E 138°53'611.7
2018-Feb-16 06:27N 34°33' E 139°00'511.1
2018-Feb-16 05:58N 34°35' E 139°07'711.0
2018-Feb-16 05:22N 34°36' E 139°14'1010.8
2018-Feb-16 04:24N 34°39' E 139°27'  
2018-Feb-13 10:05N 34°51' E 139°33'213.8
2018-Feb-13 09:58N 34°51' E 139°31'714.2
2018-Feb-13 09:29N 34°50' E 139°23'714.1
2018-Feb-13 09:00N 34°47' E 139°16'714.9
2018-Feb-13 08:30N 34°42' E 139°09'713.6
2018-Feb-13 07:59N 34°38' E 139°02'613.5
2018-Feb-13 07:31N 34°35' E 138°55'714.0
2018-Feb-13 07:00N 34°34' E 138°46'18711.5
2018-Feb-12 14:41N 33°46' E 135°08'313.8
2018-Feb-12 14:28N 33°48' E 135°05'613.4
2018-Feb-12 14:00N 33°54' E 135°01'713.8
2018-Feb-12 13:30N 34°01' E 135°00'713.6
2018-Feb-12 13:00N 34°07' E 134°60'713.9
2018-Feb-12 12:30N 34°14' E 134°59'713.7
2018-Feb-12 12:01N 34°21' E 134°59'713.3
2018-Feb-12 11:30N 34°28' E 135°01'612.8
2018-Feb-12 11:00N 34°34' E 135°03'5 9.1
2018-Feb-12 10:30N 34°37' E 134°59'612.4
2018-Feb-12 10:00N 34°34' E 134°52'612.6
2018-Feb-12 09:30N 34°32' E 134°45'612.8
2018-Feb-12 09:01N 34°29' E 134°38'713.0
2018-Feb-12 08:30N 34°27' E 134°30'  
Track history (hours):
 
Tides and Currents Weather Stations Pressure Air Temp Water Temp Dewpoint Dewpoint Depression Visibility Wind Speed Wind Dir Waves Ship Positions

Taiou Maru

Last reported at 2018-Feb-21 09:00 UTC. Time now 2018-Feb-21 09:17 UTC.
Position N 33°50' E 135°03'.

Length 72 m; draft 4.2 m.

Type: Ship. MMSI: 431003171.

Date/timePositionNaut miles runAvg speedWind from/ knotsBaromVisibWave heightAir tempDewpointWater temp
2018-Feb-21 09:00N 33°50' E 135°03'713.5
2018-Feb-21 08:30N 33°55' E 134°57'713.2
2018-Feb-21 08:00N 34°00' E 134°52'713.7
2018-Feb-21 07:30N 34°06' E 134°47'714.2
2018-Feb-21 07:00N 34°11' E 134°42'714.4
2018-Feb-21 06:30N 34°18' E 134°38'713.5
2018-Feb-21 06:00N 34°24' E 134°39'713.2
2018-Feb-21 05:30N 34°31' E 134°40'613.0
2018-Feb-21 05:00N 34°37' E 134°40'612.4
2018-Feb-21 04:30N 34°43' E 134°38'2 0.7
2018-Feb-21 01:04N 34°45' E 134°37'2 3.7
2018-Feb-21 00:39N 34°44' E 134°37'1 1.2
2018-Feb-21 00:09N 34°43' E 134°36'0 0.1
2018-Feb-20 23:57N 34°43' E 134°36'0 0.1
2018-Feb-20 23:27N 34°43' E 134°36'0 0.0
2018-Feb-20 23:00N 34°43' E 134°36'0 0.0
2018-Feb-20 22:27N 34°43' E 134°36'0 0.0
2018-Feb-20 21:54N 34°43' E 134°36'0 0.0
2018-Feb-20 21:27N 34°43' E 134°36'0 0.0
2018-Feb-20 20:51N 34°43' E 134°36'0 0.0
2018-Feb-20 20:27N 34°43' E 134°36'0 0.0
2018-Feb-20 19:57N 34°43' E 134°36'0 0.0
2018-Feb-20 19:27N 34°43' E 134°36'0 0.0
2018-Feb-20 18:57N 34°43' E 134°36'0 0.1
2018-Feb-20 18:27N 34°43' E 134°36'0 0.3
2018-Feb-20 18:00N 34°43' E 134°36'611.9
2018-Feb-20 17:29N 34°42' E 134°29'9511.0
2018-Feb-20 08:47N 33°60' E 132°45'311.1
2018-Feb-20 08:29N 33°57' E 132°43'4611.6
2018-Feb-20 04:31N 33°28' E 131°59'011.7
2018-Feb-20 04:30N 33°28' E 131°59'612.3
2018-Feb-20 04:00N 33°25' E 131°53'612.8
2018-Feb-20 03:31N 33°21' E 131°47'612.5
2018-Feb-20 03:00N 33°17' E 131°41'1 0.4
2018-Feb-19 23:38N 33°16' E 131°41'0 1.6
2018-Feb-19 23:25N 33°16' E 131°41'5 9.5
2018-Feb-19 22:52N 33°21' E 131°42'0 0.0
2018-Feb-19 22:22N 33°21' E 131°42'0 0.0
2018-Feb-19 21:22N 33°21' E 131°42'0 0.0
2018-Feb-19 20:55N 33°21' E 131°42'0 0.0
2018-Feb-19 20:28N 33°21' E 131°42'0 0.0
2018-Feb-19 19:58N 33°21' E 131°42'0 0.0
2018-Feb-19 19:28N 33°21' E 131°42'0 0.0
2018-Feb-19 18:58N 33°21' E 131°42'0 0.0
2018-Feb-19 18:25N 33°21' E 131°42'0 0.0
2018-Feb-19 17:58N 33°21' E 131°42'0 0.0
2018-Feb-19 17:28N 33°21' E 131°42'0 0.0
2018-Feb-19 16:58N 33°21' E 131°42'0 0.0
2018-Feb-19 16:28N 33°21' E 131°42'0 0.0
2018-Feb-19 15:58N 33°21' E 131°42'1 3.2
2018-Feb-19 15:30N 33°23' E 131°43'713.3
2018-Feb-19 15:00N 33°26' E 131°50'713.0
2018-Feb-19 14:28N 33°30' E 131°57'1512.7
2018-Feb-19 13:16N 33°38' E 132°12'512.6
2018-Feb-19 12:53N 33°41' E 132°17'612.7
2018-Feb-19 12:24N 33°45' E 132°23'612.5
2018-Feb-19 11:54N 33°48' E 132°29'512.6
2018-Feb-19 11:29N 33°51' E 132°34'713.0
2018-Feb-19 10:59N 33°56' E 132°40'90 1.8
2018-Feb-17 07:47N 34°21' E 134°24'611.3
2018-Feb-17 07:15N 34°18' E 134°31'311.3
2018-Feb-17 06:57N 34°17' E 134°34'11 9.8
2018-Feb-17 05:47N 34°09' E 134°44'2 6.8
2018-Feb-17 05:29N 34°07' E 134°46'3 6.5
2018-Feb-17 05:00N 34°05' E 134°48'3 6.5
2018-Feb-17 04:30N 34°02' E 134°50'4 6.5
2018-Feb-17 03:57N 33°60' E 134°53'3 6.3
2018-Feb-17 03:29N 33°57' E 134°55'3 6.1
2018-Feb-17 02:55N 33°55' E 134°58'3 7.8
2018-Feb-17 02:31N 33°53' E 135°01'19410.0
2018-Feb-16 07:08N 34°33' E 138°50'212.3
2018-Feb-16 07:00N 34°33' E 138°53'611.7
2018-Feb-16 06:27N 34°33' E 139°00'511.1
2018-Feb-16 05:58N 34°35' E 139°07'711.0
2018-Feb-16 05:22N 34°36' E 139°14'1010.8
2018-Feb-16 04:24N 34°39' E 139°27'  
2018-Feb-13 10:05N 34°51' E 139°33'213.8
2018-Feb-13 09:58N 34°51' E 139°31'714.2
2018-Feb-13 09:29N 34°50' E 139°23'714.1
2018-Feb-13 09:00N 34°47' E 139°16'714.9
2018-Feb-13 08:30N 34°42' E 139°09'713.6
2018-Feb-13 07:59N 34°38' E 139°02'613.5
2018-Feb-13 07:31N 34°35' E 138°55'714.0
2018-Feb-13 07:00N 34°34' E 138°46'18711.5
2018-Feb-12 14:41N 33°46' E 135°08'313.8
2018-Feb-12 14:28N 33°48' E 135°05'613.4
2018-Feb-12 14:00N 33°54' E 135°01'713.8
2018-Feb-12 13:30N 34°01' E 135°00'713.6
2018-Feb-12 13:00N 34°07' E 134°60'713.9
2018-Feb-12 12:30N 34°14' E 134°59'713.7
2018-Feb-12 12:01N 34°21' E 134°59'713.3
2018-Feb-12 11:30N 34°28' E 135°01'612.8
2018-Feb-12 11:00N 34°34' E 135°03'5 9.1
2018-Feb-12 10:30N 34°37' E 134°59'612.4
2018-Feb-12 10:00N 34°34' E 134°52'612.6
2018-Feb-12 09:30N 34°32' E 134°45'612.8
2018-Feb-12 09:01N 34°29' E 134°38'713.0
2018-Feb-12 08:30N 34°27' E 134°30'  

Dump ship's entire track history